VIII BIEG IM. ASI KENIG - BIEG 10KM

Organizator:
Szkoła Podstawowa im. Jana Kochanowskiego w Sławsku
Data:
2019-04-28
Miejsce:
Sławsko
Dystans:
10 km
Zgłoszonych:
177
Wystartowało:
114
Nie ukończyło:
0
Ukończyło:
114
Na trasie:
0
Pełne wyniki :
Wyniki uproszczone:
Wyniki nieoficjalne !!!
Klasyfikacje w punktach pomiarowych: Start | Meta
Klasyfikacje wg kategorii: Wszyscy | K-Open | M-Open

MscZawodnikNumerKlubMiejscowośćKrajKategoriaMkatK/MCzas
netto
10km
Różn.Tempo
min/km
Tempo
km/h
     
1BORYCHOWSKI Mariusz 162HERKULES TEAMKOSZALINM-Open1M 100:32:17.90 3:1318.6
2RUDNIK Krzysztof 170KRĘPA SŁUPSKAM-Open2M 200:34:41.86+00:02:233:2817.3
3KĘPKA Adrian 47TAGER KOSZALINWIEKOWOM-Open3M 300:35:28.46+00:03:103:3216.9
4SZOPIŃSKI Tomasz 138KB BRYZA POSTOMINONACMIERZM-Open4M 400:36:19.95+00:04:023:3816.5
5KOZAK Arkadiusz 161HERKULES TEAMKOSZALINM-Open5M 500:37:05.52+00:04:473:4216.2
6KURKUL Przemek 71KB BRYZA POSTOMONOPAŁÓWKOM-Open6M 600:37:51.22+00:05:333:4715.9
7SKORUPSKI Robert 128STOPA SŁUPSKSŁUPSKM-Open7M 700:38:08.99+00:05:513:4815.7
8RUDNIKOWSKI Maciej 119DARŁOWSKIE CHARTY / BIEGUZDROWISKOWY.PLDARŁOWOM-Open8M 800:38:18.01+00:06:003:4915.7
9KURKUL Janek 70KB BRYZA POSTOMONOPAŁÓWKOM-Open9M 900:38:45.62+00:06:273:5215.5
10CZAPLIŃSKI Jacek 19TAGER KOSZALINKOSZALINM-Open10M 1000:39:02.03+00:06:443:5415.4
11ROSIAK Damian 118KB SPOKO SŁAWNOSŁAWNOM-Open11M 1100:39:58.44+00:07:403:5915
12PRĘDKI Grzegorz 203KB BRYZA POSTOMINODARŁOWOM-Open12M 1200:40:02.04+00:07:444:0015
13JABŁOŃSKI Tomasz 100KB SPOKO SŁAWNOSŁAWNOM-Open13M 1300:40:12.67+00:07:544:0114.9
14PŁAZA Ryszard 109DARŁOWOM-Open14M 1400:40:42.40+00:08:244:0414.7
15PICK Tomasz 106DEAF KOSZALINKOSZALINM-Open15M 1500:41:04.58+00:08:464:0614.6
16GAŁKOWSKI Dariusz 166SŁAWSKOM-Open16M 1600:41:38.20+00:09:204:0914.4
17ŻYLICZ Paweł 159STOPA SŁUPSK / USB USTKASŁUPSKM-Open17M 1700:41:49.43+00:09:314:1014.3
18RYBICKI Andrzej 122KB SPOKO SŁAWNOMALECHOWOM-Open18M 1800:41:58.02+00:09:404:1114.3
19GIERLACH Jacek 25STOPA SŁUPSKSŁUPSKM-Open19M 1900:42:10.92+00:09:534:1314.2
20TŁUSTEK Łukasz 141KB BRYZA POSTOMONORUSINOWOM-Open20M 2000:42:15.52+00:09:574:1314.2
21WILUSZ Krzysztof 152STOPA SŁUPSKSŁUPSKM-Open21M 2100:42:16.80+00:09:584:1314.2
22KRUKOWSKI Błażej 63KB SPOKO SŁAWNOSŁAWNOM-Open22M 2200:42:36.30+00:10:184:1514.1
23WILCZEWSKI Krzysztof 151KB SPOKO SŁAWNOSŁAWNOM-Open23M 2300:42:38.14+00:10:204:1514.1
24JANKOWSKI Grzegorz 34ŚWIAT PŁYTEK U KRYSPINABYTÓWM-Open24M 2400:42:59.75+00:10:414:1814
25GORZKOWSKI Paweł 172STOPA SŁUPSKSŁUPSKM-Open25M 2500:43:01.42+00:10:434:1813.9
26WÓJCICKI Grzegorz 155KB SPOKO SŁAWNOSŁAWNOM-Open26M 2600:43:12.19+00:10:544:1913.9
27ANTOSIK Grzegorz 1KB BRYZA POSTOMONOŻUKOWOM-Open27M 2700:43:30.81+00:11:124:2113.8
28NIEWIADA Marek 95ŚWINOUJŚCIEM-Open28M 2800:44:02.27+00:11:444:2413.6
29BOGDANOWICZ Paula 77 PBOTSŁUPSKK-Open1K 100:44:07.55+00:11:494:2413.6
30KUCHAREK Marcin 67STOPA SŁUPSKSŁUPSKM-Open29M 2900:44:09.68+00:11:514:2413.6
31CHUDY Henryk 17KS OLSZEWSKI I SYNOWIESŁAWSKOM-Open30M 3000:44:39.74+00:12:214:2813.4
32NIECKARZ Krzysztof 94KB SPOKO SŁAWNOSŁAWNOM-Open31M 3100:44:41.64+00:12:234:2813.4
33MOSKWA Krzysztof 89STARY JAROSŁAWM-Open32M 3200:44:41.85+00:12:234:2813.4
34KOSICKI Tomasz 58STOPA SŁUPSKSŁUPSKM-Open33M 3300:44:42.25+00:12:244:2813.4
35ORDAK Sławomir 101SAMSOBIESTARY JAROSŁAWM-Open34M 3400:44:49.09+00:12:314:2813.4
36KRAWCZUK Szymon 62DARŁOWSKIE CHARTYGLEŹNOWOM-Open35M 3500:44:52.10+00:12:344:2913.4
37URBANIAK Szymon 146CSSP KOSZALINWRZESNICAM-Open36M 3600:44:59.16+00:12:414:3013.3
38OKOŁOTOWICZ Sebastian 174SŁUPSKM-Open37M 3700:45:05.01+00:12:474:3013.3
39TURCZYN Tomasz 145DZIENNIK SŁAWIEŃSKISŁAWNOM-Open38M 3800:45:11.06+00:12:534:3113.3
40PĘKAŁA Piotr 105KOSZALINM-Open39M 3900:45:13.22+00:12:554:3113.3
41TOMCZAK Dominik 142NIGHT RUNNERS SŁUPSKSŁUPSKM-Open40M 4000:45:16.44+00:12:584:3113.3
42WIELGAT Łukasz 149KB BRYZA POSTOMONOPIEŃKOWOM-Open41M 4100:45:16.99+00:12:594:3113.2
43KAMELSKI Piotr 38KB SPOKO SŁAWNOSŁAWNOM-Open42M 4200:45:23.32+00:13:054:3213.2
44NIECKARZ Monika 93KB SPOKO SŁAWNOSŁAWNOK-Open2K 200:45:25.41+00:13:074:3213.2
45PROTASEWICZ Andrzej 112KB SPOKO SŁAWNOSŁAWNOM-Open43M 4300:45:26.97+00:13:094:3213.2
46HAMALA Marcin 31TAGER KOSZALINKOSZALINM-Open44M 4400:45:30.43+00:13:124:3313.2
47RUTKOWSKI Ryszard 121KOSZALIŃSKI RANKING BIEGACZYSIANÓWM-Open45M 4500:45:32.00+00:13:144:3313.2
48BAKALARZ Adam 4REHA OMTDARŁOWOM-Open46M 4600:45:39.48+00:13:214:3313.1
49BONISŁAWSKI Jarosław 8KB SPOKO SŁAWNOSŁAWNOM-Open47M 4700:45:40.40+00:13:224:3413.1
50KONKEL Agnieszka 53KOSZALINK-Open3K 300:45:52.57+00:13:344:3513.1
51OLSZAR Grzegorz 180DARŁOWSKIE CHARTYDARŁOWOM-Open48M 4800:45:54.36+00:13:364:3513.1
52SOMINKA Andrzej 131SSB (SOBIESAMBIEGAM)DARŁOWOM-Open49M 4900:46:13.25+00:13:554:3713
53GOSTOMCZYK Krzysztof 28KB SPOKO SŁAWNOSŁAWNOM-Open50M 5000:46:22.51+00:14:044:3812.9
54CAŁA Bartosz 13ŚWIAT PŁYTEK U KRYSPINABYTÓWM-Open51M 5100:46:47.43+00:14:294:4012.8
55CAŁA Małgorzata 14BYTÓWK-Open4K 400:46:47.52+00:14:294:4012.8
56KARGUL Jacek 41NIGHT RUNNERS SŁUPSKSŁUPSKM-Open52M 5200:47:03.23+00:14:454:4212.8
57WÓJCIK Damian 156RUNNERSWALDE DARŁOWODARŁOWOM-Open53M 5300:47:03.56+00:14:454:4212.7
58ORLOWSKI Maciej 103DARŁOWSKIE CHARTYRUSKOM-Open54M 5400:47:45.68+00:15:274:4612.6
59OLECHNOWICZ Sławomir 98STOPA SŁUPSKSŁUPSKM-Open55M 5500:47:53.95+00:15:364:4712.5
60RUDZKI Adam 176NOSALINM-Open56M 5600:48:06.64+00:15:484:4812.5
61KACZMAREK Marta 36KB SPOKO SŁAWNOSŁAWNOK-Open5K 500:48:09.48+00:15:514:4812.5
62KOCIENIEWSKI Damian 177NOSALINM-Open57M 5700:48:13.51+00:15:554:4912.4
63WIATRZYK Krzysztof 22DARŁOWODARŁOWOM-Open58M 5800:48:14.56+00:15:564:4912.4
64KONKEL Łukasz 54KOSZALINM-Open59M 5900:48:25.58+00:16:074:5012.4
65KANIOWSKI Jacek 40W.P.K SŁOŃ TEAM USTKASŁAWNOM-Open60M 6000:48:36.58+00:16:184:5112.3
66KOWALCZYK Krzysztof 59SŁAWNOSŁAWNOM-Open61M 6100:48:36.75+00:16:184:5112.3
67BUKOWSKI Bartosz 12SŁAWNOM-Open62M 6200:48:48.84+00:16:304:5212.3
68LEWANDOWSKA Beata 72STOPA SŁUPSKSŁUPSKK-Open6K 600:48:49.85+00:16:314:5312.3
69KULCZYK Katarzyna 69KB BRYZA POSTOMONOSŁAWSKOK-Open7K 700:49:30.60+00:17:124:5712.1
70KAMIENIECKI Kacper 171USTKAM-Open63M 6300:49:31.29+00:17:134:5712.1
71KAMIENIECKI Rafał 39TUPOT USTKAUSTKAM-Open64M 6400:49:32.01+00:17:144:5712.1
72NOREK Tomek 96KOSZALINM-Open65M 6500:49:44.95+00:17:274:5812.1
73CZYŻ Izabella 20STOPA SŁUPSKSŁUPSKK-Open8K 800:50:14.18+00:17:565:0111.9
74MOTYKOWSKA Ksenia 90KB SPOKO SŁAWNOSŁAWNOK-Open9K 900:50:30.76+00:18:125:0311.9
75TELESIEWICZ Henryk 140KB SPOKO SŁAWNOSŁAWNOM-Open66M 6600:50:31.98+00:18:145:0311.9
76PRYZWAN Karolina 114RUSKOK-Open10K 1000:50:48.05+00:18:305:0411.8
77KOSICKA Iwona 57STOPA SŁUPSKSŁUPSKK-Open11K 1100:51:03.48+00:18:455:0611.7
78DRZEWIECKA Justyna 175DARŁOWOK-Open12K 1200:51:05.10+00:18:475:0611.7
79MALINOWSKI Adam 80MKS 'ŚWIĘC' SŁAWNOSŁAWNOM-Open67M 6700:51:09.59+00:18:515:0711.7
80GAŁKOWSKA Patrycja 23KB BRYZA POSTOMONOSŁAWSKOK-Open13K 1300:51:13.24+00:18:555:0711.7
81KOWALSKI Krzysztof 60STOPA SŁUPSKSŁUPSKM-Open68M 6800:51:22.33+00:19:045:0811.7
82SAWICKI Piotr 125DARŁOWODARŁOWOM-Open69M 6900:51:25.35+00:19:075:0811.7
83LITWIN Barbara 76STOPA SŁUPSK /NIGHT RUNNERS SŁUPSKSŁUPSKK-Open14K 1400:51:25.96+00:19:085:0811.7
84GLISZCZYŃSKI Łukasz 26ŚWIAT PŁYTEK U KRYSPINABYTÓWM-Open70M 7000:51:29.15+00:19:115:0811.7
85NOWAK Wioleta 163DARŁOWOK-Open15K 1500:51:37.08+00:19:195:0911.6
86NOWAK Marek 164DARŁOWOM-Open71M 7100:51:37.23+00:19:195:0911.6
87SOBCZYK Mariusz 130SŁUPSKM-Open72M 7200:52:14.16+00:19:565:1311.5
88KONKEL Joanna 52MKS 'ŚWIĘC' SŁAWNOSŁAWNOK-Open16K 1600:52:40.21+00:20:225:1611.4
89OLESZCZUK Kamil 99ROWYM-Open73M 7300:52:41.83+00:20:235:1611.4
90LEWANDOWSKA Maria 73W.P.K SŁOŃ TEAM USTKAUSTKAK-Open17K 1700:53:06.20+00:20:485:1811.3
91PLACEK Patrzk 165RZYSZCZEWOM-Open74M 7400:53:23.41+00:21:055:2011.2
92RAWSKI Jarosław 117STOPA SŁUPSKSŁUPSKM-Open75M 7500:53:36.01+00:21:185:2111.2
93SZMIGIERO Sebastian 137W.P.K SŁOŃ TEAM USTKASŁUPSKM-Open76M 7600:53:47.98+00:21:305:2211.2
94LEWANDOWSKI Adam 75W.P.K SŁOŃ TEAM USTKAUSTKAM-Open77M 7700:53:56.86+00:21:385:2311.1
95ZARZYCKA Izabela 157W.P.K SŁOŃ TEAM USTKAUSTKAK-Open18K 1800:54:06.65+00:21:485:2411.1
96GÓRSKI Michał 29DĄBKIM-Open78M 7800:54:06.86+00:21:485:2411.1
97BIERNAT Kamil 168SŁAWNOM-Open79M 7900:55:33.27+00:23:155:3310.8
98PIETRZAK Mariola 107ROZBIEGANY KOSZALINKOSZALINK-Open19K 1900:56:25.65+00:24:075:3810.6
99ORDAK Iwona 102SAMASOBIESTARY JAROSŁAWK-Open20K 2000:57:13.89+00:24:555:4310.5
100MAJ Agnieszka 79SŁAWNOK-Open21K 2100:57:48.00+00:25:305:4610.4
101KOROLCZUK Karolina 56SŁAWNOK-Open22K 2200:57:48.21+00:25:305:4610.4
102BIERNAT Karolina 160SŁAWNOK-Open23K 2300:58:11.20+00:25:535:4910.3
103BRZOSTOWSKA Ewa 11KB BRYZA POSTOMONOPIEŃKOWOK-Open24K 2400:58:44.40+00:26:265:5210.2
104SŁOMSKI Zenon 129KORZYBSKIE REKINYKORZYBIEM-Open80M 8000:59:54.90+00:27:365:5910
105KOMAR Agnieszka 50KB SPOKO SŁAWNOSŁAWNOK-Open25K 2501:00:02.33+00:27:446:0010
106SZPITER Tomasz 220OLAWS ZŁOTORYJAZŁOTORYJAM-Open81M 8101:00:08.95+00:27:516:0010
107WACHHOLZ Beata 147KB BRYZA POSTOMONOSŁAWNOK-Open26K 2601:00:09.14+00:27:516:0010
108SAŁAJ Angelika 178Powiat SłupskiZBYSZEWOK-Open27K 2701:01:26.21+00:29:086:089.8
109SEWERYN Tomasz 179BUKÓWKAM-Open82M 8201:01:26.39+00:29:086:089.8
110PROTASEWICZ Renata 113KB SPOKO SŁAWNOSŁAWNOK-Open28K 2801:01:41.37+00:29:236:109.7
111MICHALAK Wojtek 173SŁAWNOM-Open83M 8301:04:55.02+00:32:376:299.2
112MEGGER Agata 84SIEMIANICEK-Open29K 2901:06:19.80+00:34:016:389
113ANTOSIK Grażyna 2KS OLSZEWSKI I SYNOWIESŁAWSKOK-Open30K 3001:07:35.91+00:35:186:458.9
114STRUKIEL Anna 134KOSZALINK-Open31K 3101:07:37.44+00:35:196:458.9
Znaleziono 114 wynik(ów)